createdAt,value
2022-09-06T00:00:42.766Z,68.87
2022-09-06T00:03:09.747Z,68.39
2022-09-06T00:05:37.134Z,68.81
2022-09-06T00:08:05.516Z,68.79
2022-09-06T00:10:35.203Z,68.65
2022-09-06T00:13:04.368Z,69.05
2022-09-06T00:15:31.686Z,69.72
2022-09-06T00:18:00.721Z,69.34
2022-09-06T00:20:28.812Z,69.66
2022-09-06T00:22:59.579Z,69.50
2022-09-06T00:25:27.056Z,69.37
2022-09-06T00:27:57.702Z,69.64
2022-09-06T00:30:25.140Z,70.00
2022-09-06T00:32:52.951Z,70.16
2022-09-06T00:35:20.470Z,70.35
2022-09-06T00:37:46.919Z,70.67
2022-09-06T00:40:14.152Z,70.65
2022-09-06T00:42:41.010Z,70.39
2022-09-06T00:45:08.825Z,70.81
2022-09-06T00:47:38.869Z,71.16
2022-09-06T00:50:06.490Z,71.42
2022-09-06T00:52:34.435Z,71.79
2022-09-06T00:55:01.165Z,71.38
2022-09-06T00:57:30.851Z,71.87
2022-09-06T00:59:57.829Z,71.96
2022-09-06T01:02:24.289Z,72.02
2022-09-06T01:04:52.067Z,72.53
2022-09-06T01:07:57.533Z,72.11
2022-09-06T01:10:50.425Z,72.22
2022-09-06T01:13:28.722Z,72.92
2022-09-06T01:16:11.250Z,73.16
2022-09-06T01:19:07.132Z,72.75
2022-09-06T01:22:28.045Z,72.74
2022-09-06T01:25:12.454Z,72.97
2022-09-06T01:28:00.439Z,72.94
2022-09-06T01:30:26.855Z,72.77
2022-09-06T01:33:03.802Z,73.08
2022-09-06T01:35:38.394Z,73.18
2022-09-06T01:38:07.144Z,73.22
2022-09-06T01:40:36.486Z,72.48
2022-09-06T01:43:11.205Z,72.41
2022-09-06T01:45:56.369Z,72.03
2022-09-06T01:48:47.239Z,72.17
2022-09-06T01:51:38.690Z,72.68
2022-09-06T01:54:12.282Z,72.91
2022-09-06T01:57:05.883Z,72.54
2022-09-06T02:00:10.702Z,72.69
2022-09-06T02:03:08.521Z,72.76
2022-09-06T02:05:51.034Z,73.46
2022-09-06T02:08:25.499Z,73.51
2022-09-06T02:11:02.495Z,73.57
2022-09-06T02:14:05.125Z,74.13
2022-09-06T02:16:35.571Z,74.74
2022-09-06T02:19:17.198Z,74.22
2022-09-06T02:21:46.529Z,73.71
2022-09-06T02:24:23.075Z,73.57
2022-09-06T02:26:50.067Z,73.82
2022-09-06T02:29:17.437Z,74.00
2022-09-06T02:31:56.210Z,74.03
2022-09-06T02:34:22.739Z,74.25
2022-09-06T02:36:49.633Z,74.61
2022-09-06T02:39:16.601Z,74.75
2022-09-06T02:41:46.568Z,74.54
2022-09-06T02:44:13.129Z,74.74
2022-09-06T02:46:39.553Z,74.86
2022-09-06T02:49:05.998Z,75.05
2022-09-06T02:51:38.188Z,74.88
2022-09-06T02:54:05.219Z,75.01
2022-09-06T02:56:33.696Z,75.06
2022-09-06T02:59:00.775Z,74.94
2022-09-06T03:01:27.271Z,74.97
2022-09-06T03:03:53.742Z,75.17
2022-09-06T03:06:20.191Z,75.48
2022-09-06T03:08:46.663Z,75.57
2022-09-06T03:11:13.139Z,75.37
2022-09-06T03:13:39.686Z,75.53
2022-09-06T03:16:06.164Z,75.50
2022-09-06T03:18:33.010Z,76.08
2022-09-06T03:20:59.690Z,76.19
2022-09-06T03:23:28.209Z,76.34
2022-09-06T03:25:54.971Z,76.50
2022-09-06T03:28:22.905Z,76.83
2022-09-06T03:30:51.536Z,77.18
2022-09-06T03:33:19.139Z,76.95
2022-09-06T03:35:57.308Z,76.92
2022-09-06T03:38:26.074Z,77.68
2022-09-06T03:40:53.098Z,77.69
2022-09-06T03:43:20.999Z,77.78
2022-09-06T03:45:49.610Z,77.28
2022-09-06T03:48:17.201Z,77.46
2022-09-06T03:50:49.300Z,77.38
2022-09-06T03:53:16.927Z,77.51
2022-09-06T03:55:52.223Z,76.97
2022-09-06T03:58:20.869Z,77.29
2022-09-06T04:00:47.553Z,77.62
2022-09-06T04:03:14.199Z,77.98
2022-09-06T04:05:44.565Z,77.58
2022-09-06T04:08:10.991Z,77.68
2022-09-06T04:10:38.198Z,77.96
2022-09-06T04:13:04.673Z,78.46
2022-09-06T04:15:31.066Z,78.83
2022-09-06T04:17:58.396Z,79.29
2022-09-06T04:20:24.839Z,79.64
2022-09-06T04:22:51.240Z,79.08
2022-09-06T04:25:17.735Z,79.41
2022-09-06T04:27:44.166Z,79.46
2022-09-06T04:30:10.804Z,79.66
2022-09-06T04:32:37.266Z,79.82
2022-09-06T04:35:04.092Z,80.12
2022-09-06T04:37:30.487Z,80.23
2022-09-06T04:39:56.942Z,79.86
2022-09-06T04:42:23.433Z,79.67
2022-09-06T04:44:50.021Z,79.77
2022-09-06T04:47:18.218Z,80.00
2022-09-06T04:49:47.954Z,79.97
2022-09-06T04:52:14.352Z,79.59
2022-09-06T04:54:40.902Z,79.62
2022-09-06T04:57:07.647Z,79.62
2022-09-06T04:59:34.280Z,79.41
2022-09-06T05:02:00.749Z,79.57
2022-09-06T05:04:27.267Z,79.70
2022-09-06T05:07:08.221Z,79.47
2022-09-06T05:09:35.195Z,79.51
2022-09-06T05:12:01.889Z,78.90
2022-09-06T05:14:29.427Z,79.28
2022-09-06T05:16:56.037Z,79.65
2022-09-06T05:19:22.677Z,79.69
2022-09-06T05:21:51.061Z,79.19
2022-09-06T05:24:17.599Z,79.33
2022-09-06T05:26:44.034Z,79.32
2022-09-06T05:29:10.430Z,79.05
2022-09-06T05:31:36.954Z,78.61
2022-09-06T05:34:03.465Z,78.57
2022-09-06T05:36:31.251Z,78.85
2022-09-06T05:38:58.715Z,79.04
2022-09-06T05:41:25.691Z,79.17
2022-09-06T05:43:52.125Z,79.23
2022-09-06T05:46:18.659Z,78.93
2022-09-06T05:48:52.019Z,78.71
2022-09-06T05:51:18.484Z,78.55
2022-09-06T05:53:45.547Z,78.68
2022-09-06T05:56:14.099Z,78.73
2022-09-06T05:58:40.628Z,78.34
2022-09-06T06:01:20.472Z,78.52
2022-09-06T06:03:56.919Z,78.75
2022-09-06T06:06:24.654Z,78.75
2022-09-06T06:08:51.077Z,78.78
2022-09-06T06:11:18.224Z,78.96
2022-09-06T06:13:45.176Z,78.69
2022-09-06T06:16:14.637Z,78.96
2022-09-06T06:18:41.385Z,79.15
2022-09-06T06:21:16.183Z,79.39
2022-09-06T06:23:44.638Z,79.29
2022-09-06T06:26:12.289Z,79.16
2022-09-06T06:28:39.986Z,78.76
2022-09-06T06:31:08.190Z,78.59
2022-09-06T06:33:36.326Z,79.03
2022-09-06T06:36:06.862Z,78.39
2022-09-06T06:38:36.019Z,78.38
2022-09-06T06:41:06.535Z,78.37
2022-09-06T06:43:37.947Z,78.08
2022-09-06T06:46:16.087Z,77.73
2022-09-06T06:48:44.193Z,77.26
2022-09-06T06:51:16.714Z,76.76
2022-09-06T06:53:47.599Z,77.07
2022-09-06T06:56:21.481Z,76.46
2022-09-06T06:58:50.167Z,76.26
2022-09-06T07:01:18.270Z,75.79
2022-09-06T07:03:44.865Z,75.36
2022-09-06T07:06:12.297Z,75.46
2022-09-06T07:08:40.287Z,75.48
2022-09-06T07:11:08.164Z,74.80
2022-09-06T07:13:34.810Z,74.68
2022-09-06T07:16:16.547Z,74.16
2022-09-06T07:18:45.587Z,73.65
2022-09-06T07:24:07.177Z,74.49
2022-09-06T07:26:36.283Z,73.06
2022-09-06T07:29:04.437Z,72.78
2022-09-06T07:34:19.271Z,71.47
2022-09-06T07:36:45.838Z,70.91
2022-09-06T07:39:12.343Z,70.20
2022-09-06T07:41:38.765Z,70.79
2022-09-06T07:44:05.226Z,70.94
2022-09-06T07:46:32.546Z,70.80
2022-09-06T07:48:59.166Z,70.07
2022-09-06T07:51:25.601Z,70.95
2022-09-06T07:54:07.375Z,70.19
2022-09-06T07:56:42.002Z,70.99
2022-09-06T07:59:09.351Z,69.39
2022-09-06T08:01:40.067Z,69.79
2022-09-06T08:04:12.878Z,68.89
2022-09-06T08:09:28.926Z,67.66
2022-09-06T08:11:55.395Z,67.69
2022-09-06T08:14:21.838Z,68.72
2022-09-06T08:16:48.270Z,67.99
2022-09-06T08:19:14.733Z,67.39
2022-09-06T08:21:41.175Z,66.94
2022-09-06T08:24:11.998Z,65.92
2022-09-06T08:26:40.509Z,66.37
2022-09-06T08:29:08.824Z,65.56
2022-09-06T08:31:39.076Z,64.49
2022-09-06T08:34:05.833Z,64.45
2022-09-06T08:36:32.898Z,64.22
2022-09-06T08:39:05.386Z,64.09
2022-09-06T08:41:53.426Z,63.41
2022-09-06T08:47:21.657Z,63.06
2022-09-06T08:49:54.601Z,63.14
2022-09-06T08:52:41.734Z,62.40
2022-09-06T08:55:24.936Z,62.83
2022-09-06T08:58:29.251Z,63.21
2022-09-06T09:01:13.736Z,62.27
2022-09-06T09:03:43.807Z,61.66
2022-09-06T09:06:11.730Z,60.70
2022-09-06T09:08:46.354Z,60.82
2022-09-06T09:11:18.236Z,61.13
2022-09-06T09:14:01.726Z,60.76
2022-09-06T09:16:28.596Z,59.57
2022-09-06T09:19:03.869Z,59.26
2022-09-06T09:21:40.443Z,59.33
2022-09-06T09:24:09.372Z,58.48
2022-09-06T09:26:44.150Z,60.42
2022-09-06T09:29:13.238Z,59.08
2022-09-06T09:31:53.742Z,58.75
2022-09-06T09:34:33.295Z,58.29
2022-09-06T09:39:59.515Z,57.98
2022-09-06T09:42:33.469Z,58.03
2022-09-06T09:45:01.441Z,57.29
2022-09-06T09:47:33.241Z,56.71
2022-09-06T09:50:00.092Z,56.45
2022-09-06T09:52:29.441Z,56.13
2022-09-06T09:55:05.737Z,56.99
2022-09-06T09:57:44.644Z,56.97
2022-09-06T10:00:13.419Z,56.96
2022-09-06T10:02:42.268Z,55.75
2022-09-06T10:05:19.243Z,56.04
2022-09-06T10:07:51.591Z,56.57
2022-09-06T10:10:23.766Z,55.49
2022-09-06T10:13:12.599Z,55.91
2022-09-06T10:15:40.899Z,55.40
2022-09-06T10:18:35.483Z,56.13
2022-09-06T10:21:09.156Z,57.17
2022-09-06T10:26:59.657Z,55.47
2022-09-06T10:29:29.032Z,54.03
2022-09-06T10:32:21.714Z,53.53
2022-09-06T10:35:09.518Z,53.58
2022-09-06T10:37:44.474Z,53.90
2022-09-06T10:40:16.126Z,53.95
2022-09-06T10:42:54.843Z,53.73
2022-09-06T10:45:42.957Z,53.03
2022-09-06T10:48:29.722Z,52.73
2022-09-06T10:51:06.033Z,52.69
2022-09-06T10:54:10.575Z,53.12
2022-09-06T10:57:00.585Z,53.06
2022-09-06T10:59:39.813Z,52.01
2022-09-06T11:02:29.565Z,51.87
2022-09-06T11:10:48.191Z,52.59
2022-09-06T11:13:17.534Z,52.09
2022-09-06T11:15:55.058Z,52.20
2022-09-06T11:18:46.604Z,51.70
2022-09-06T11:21:37.913Z,51.26
2022-09-06T11:24:33.459Z,49.72
2022-09-06T11:27:27.994Z,51.25
2022-09-06T11:29:56.622Z,50.45
2022-09-06T11:32:34.465Z,50.46
2022-09-06T11:35:07.268Z,49.53
2022-09-06T11:37:39.531Z,49.71
2022-09-06T11:40:27.641Z,48.86
2022-09-06T11:42:54.978Z,49.44
2022-09-06T11:45:41.826Z,49.06
2022-09-06T11:48:23.431Z,50.05
2022-09-06T11:50:58.957Z,49.04
2022-09-06T11:53:30.905Z,49.15
2022-09-06T11:56:00.438Z,48.46
2022-09-06T11:58:32.723Z,48.66
2022-09-06T12:01:16.438Z,48.91
2022-09-06T12:06:40.632Z,48.89
2022-09-06T12:09:36.387Z,49.53
2022-09-06T12:12:04.029Z,49.88
2022-09-06T12:14:42.589Z,50.75
2022-09-06T12:17:09.646Z,50.33
2022-09-06T12:19:45.373Z,50.95
2022-09-06T12:22:30.296Z,49.64
2022-09-06T12:25:02.795Z,50.22
2022-09-06T12:27:35.371Z,49.08
2022-09-06T12:30:07.586Z,49.02
2022-09-06T12:32:52.161Z,48.47
2022-09-06T12:38:14.791Z,48.83
2022-09-06T12:40:45.855Z,47.47
2022-09-06T12:43:15.270Z,48.42
2022-09-06T12:45:46.819Z,49.31
2022-09-06T12:48:27.127Z,48.95
2022-09-06T12:51:09.635Z,48.47
2022-09-06T12:53:36.129Z,47.12
2022-09-06T12:56:09.521Z,46.89
2022-09-06T12:58:36.775Z,47.86
2022-09-06T13:01:13.689Z,48.14
2022-09-06T13:04:05.042Z,46.71
2022-09-06T13:06:39.024Z,46.41
2022-09-06T13:09:11.033Z,46.63
2022-09-06T13:11:41.863Z,46.29
2022-09-06T13:14:25.612Z,46.24
2022-09-06T13:16:57.901Z,45.77
2022-09-06T13:19:42.597Z,46.00
2022-09-06T13:22:13.460Z,46.38
2022-09-06T13:24:51.968Z,46.84
2022-09-06T13:27:30.817Z,46.81
2022-09-06T13:30:09.274Z,46.36
2022-09-06T13:32:46.538Z,46.71
2022-09-06T13:35:23.917Z,46.40
2022-09-06T13:37:51.026Z,46.06
2022-09-06T13:40:53.858Z,46.77
2022-09-06T13:43:24.662Z,44.40
2022-09-06T13:46:08.276Z,44.50
2022-09-06T13:48:35.880Z,43.60
2022-09-06T13:51:07.337Z,43.26
2022-09-06T13:53:35.047Z,42.40
2022-09-06T13:56:01.818Z,43.03
2022-09-06T13:58:29.699Z,43.70
2022-09-06T14:00:56.849Z,41.63
2022-09-06T14:03:31.498Z,41.83
2022-09-06T14:06:00.175Z,41.81
2022-09-06T14:08:43.369Z,41.54
2022-09-06T14:11:14.724Z,41.45
2022-09-06T14:13:41.179Z,42.39
2022-09-06T14:16:07.779Z,42.73
2022-09-06T14:18:34.239Z,42.07
2022-09-06T14:21:00.759Z,40.91
2022-09-06T14:23:27.784Z,41.83
2022-09-06T14:25:58.716Z,41.43
2022-09-06T14:28:26.482Z,41.85
2022-09-06T14:30:53.678Z,42.99
2022-09-06T14:33:24.854Z,41.75
2022-09-06T14:35:54.168Z,41.16
2022-09-06T14:38:28.430Z,41.78
2022-09-06T14:41:14.828Z,41.37
2022-09-06T14:44:00.889Z,40.51
2022-09-06T14:46:29.669Z,40.98
2022-09-06T14:49:01.602Z,42.64
2022-09-06T14:51:29.252Z,43.23
2022-09-06T14:53:59.078Z,41.50
2022-09-06T14:56:27.035Z,42.15
2022-09-06T14:58:57.400Z,41.84
2022-09-06T15:01:28.528Z,42.10
2022-09-06T15:04:00.726Z,43.07
2022-09-06T15:06:27.742Z,43.29
2022-09-06T15:08:59.180Z,42.69
2022-09-06T15:11:41.043Z,42.58
2022-09-06T15:14:13.385Z,42.96
2022-09-06T15:16:39.817Z,43.23
2022-09-06T15:19:07.775Z,42.17
2022-09-06T15:21:34.494Z,42.81
2022-09-06T15:24:02.039Z,42.81
2022-09-06T15:26:29.441Z,43.51
2022-09-06T15:28:56.461Z,43.26
2022-09-06T15:31:23.151Z,42.99
2022-09-06T15:33:51.102Z,43.39
2022-09-06T15:36:18.002Z,43.28
2022-09-06T15:38:48.096Z,43.52
2022-09-06T15:41:17.775Z,44.03
2022-09-06T15:43:49.325Z,43.46
2022-09-06T15:46:18.422Z,44.07
2022-09-06T15:48:47.177Z,43.36
2022-09-06T15:51:17.147Z,43.18
2022-09-06T15:53:44.218Z,42.41
2022-09-06T15:56:14.250Z,43.41
2022-09-06T15:58:40.995Z,44.02
2022-09-06T16:01:13.254Z,43.20
2022-09-06T16:03:42.607Z,43.05
2022-09-06T16:06:28.230Z,43.74
2022-09-06T16:09:04.842Z,43.86
2022-09-06T16:11:32.719Z,43.59
2022-09-06T16:13:59.470Z,44.47
2022-09-06T16:16:26.050Z,44.71
2022-09-06T16:18:52.632Z,44.84
2022-09-06T16:21:19.068Z,45.03
2022-09-06T16:23:57.287Z,45.23
2022-09-06T16:26:25.530Z,45.42
2022-09-06T16:28:52.854Z,46.06
2022-09-06T16:31:21.176Z,45.42
2022-09-06T16:33:48.966Z,44.90
2022-09-06T16:36:16.864Z,44.98
2022-09-06T16:38:46.398Z,46.10
2022-09-06T16:41:26.465Z,45.44
2022-09-06T16:43:53.537Z,45.13
2022-09-06T16:46:22.034Z,46.54
2022-09-06T16:48:56.865Z,46.04
2022-09-06T16:51:25.509Z,46.67
2022-09-06T16:53:53.281Z,45.70
2022-09-06T16:56:22.878Z,46.83
2022-09-06T16:58:53.379Z,46.49
2022-09-06T17:01:20.684Z,46.49
2022-09-06T17:03:47.931Z,46.61
2022-09-06T17:06:15.153Z,46.77
2022-09-06T17:08:41.738Z,46.24
2022-09-06T17:11:10.966Z,47.34
2022-09-06T17:13:38.163Z,46.14
2022-09-06T17:16:24.189Z,46.43
2022-09-06T17:18:53.684Z,46.98
2022-09-06T17:21:22.597Z,46.81
2022-09-06T17:23:50.317Z,45.96
2022-09-06T17:26:19.671Z,46.96
2022-09-06T17:28:46.682Z,46.76
2022-09-06T17:31:13.795Z,46.36
2022-09-06T17:33:40.442Z,46.19
2022-09-06T17:36:12.671Z,46.06
2022-09-06T17:38:40.342Z,46.87
2022-09-06T17:41:06.975Z,47.60
2022-09-06T17:43:36.472Z,47.84
2022-09-06T17:46:04.671Z,48.22
2022-09-06T17:48:31.273Z,49.21
2022-09-06T17:51:05.268Z,49.62
2022-09-06T17:53:31.888Z,49.63
2022-09-06T17:55:58.499Z,49.52
2022-09-06T17:58:25.192Z,49.79
2022-09-06T18:00:51.790Z,49.60
2022-09-06T18:03:20.276Z,49.82
2022-09-06T18:05:46.755Z,50.23
2022-09-06T18:08:13.288Z,50.54
2022-09-06T18:10:39.804Z,51.54
2022-09-06T18:13:06.746Z,51.75
2022-09-06T18:15:39.967Z,51.94
2022-09-06T18:18:06.486Z,52.48
2022-09-06T18:20:33.443Z,52.68
2022-09-06T18:23:00.383Z,53.38
2022-09-06T18:25:28.413Z,53.60
2022-09-06T18:27:54.911Z,53.58
2022-09-06T18:30:21.319Z,54.27
2022-09-06T18:32:47.749Z,54.00
2022-09-06T18:35:14.306Z,53.85
2022-09-06T18:37:40.997Z,53.54
2022-09-06T18:40:08.166Z,55.04
2022-09-06T18:42:34.807Z,55.23
2022-09-06T18:45:02.068Z,56.91
2022-09-06T18:47:28.484Z,56.04
2022-09-06T18:49:54.977Z,56.64
2022-09-06T18:52:21.719Z,56.83
2022-09-06T18:54:49.387Z,56.34
2022-09-06T18:57:17.180Z,56.49
2022-09-06T18:59:44.448Z,56.06
2022-09-06T19:02:11.312Z,55.66
2022-09-06T19:04:37.867Z,56.10
2022-09-06T19:07:04.383Z,55.62
2022-09-06T19:09:30.857Z,55.52
2022-09-06T19:11:57.401Z,56.20
2022-09-06T19:14:23.858Z,55.06
2022-09-06T19:16:51.722Z,55.31
2022-09-06T19:19:18.402Z,55.08
2022-09-06T19:21:44.934Z,55.90
2022-09-06T19:24:12.259Z,55.31
2022-09-06T19:26:41.782Z,55.21
2022-09-06T19:29:12.785Z,55.74
2022-09-06T19:31:39.548Z,55.87
2022-09-06T19:34:06.450Z,55.71
2022-09-06T19:36:33.228Z,55.95
2022-09-06T19:39:04.403Z,56.62
2022-09-06T19:41:34.136Z,56.86
2022-09-06T19:44:02.575Z,57.24
2022-09-06T19:46:29.039Z,57.09
2022-09-06T19:48:56.372Z,57.46
2022-09-06T19:51:24.279Z,57.60
2022-09-06T19:53:57.764Z,58.02
2022-09-06T19:56:31.674Z,58.01
2022-09-06T19:59:00.367Z,58.26
2022-09-06T20:01:29.578Z,58.20
2022-09-06T20:03:56.897Z,58.72
2022-09-06T20:06:23.547Z,58.41
2022-09-06T20:08:52.243Z,58.89
2022-09-06T20:11:20.066Z,58.61
2022-09-06T20:13:46.813Z,58.87
2022-09-06T20:16:14.305Z,59.33
2022-09-06T20:18:40.718Z,59.30
2022-09-06T20:21:07.691Z,59.44
2022-09-06T20:23:34.795Z,59.39
2022-09-06T20:26:04.436Z,59.60
2022-09-06T20:28:32.464Z,59.58
2022-09-06T20:31:01.173Z,59.46
2022-09-06T20:33:28.554Z,59.54
2022-09-06T20:35:59.475Z,59.84
2022-09-06T20:38:26.398Z,59.85
2022-09-06T20:41:05.455Z,59.75
2022-09-06T20:43:35.135Z,59.72
2022-09-06T20:46:04.218Z,59.77
2022-09-06T20:48:32.457Z,60.30
2022-09-06T20:51:01.755Z,60.16
2022-09-06T20:53:31.773Z,60.36
2022-09-06T20:56:04.143Z,60.73
2022-09-06T20:58:31.613Z,61.81
2022-09-06T21:00:59.824Z,62.80
2022-09-06T21:03:27.063Z,63.71
2022-09-06T21:05:54.133Z,63.56
2022-09-06T21:08:20.837Z,63.91
2022-09-06T21:10:47.413Z,63.10
2022-09-06T21:13:13.951Z,63.28
2022-09-06T21:15:43.257Z,62.91
2022-09-06T21:18:09.928Z,63.98
2022-09-06T21:20:36.638Z,62.96
2022-09-06T21:23:03.786Z,62.66
2022-09-06T21:25:30.257Z,62.90
2022-09-06T21:27:56.725Z,62.51
2022-09-06T21:30:23.269Z,62.53
2022-09-06T21:32:53.803Z,62.45
2022-09-06T21:35:20.234Z,62.37
2022-09-06T21:37:46.739Z,62.39
2022-09-06T21:40:13.254Z,62.19
2022-09-06T21:42:39.798Z,61.93
2022-09-06T21:45:06.552Z,61.92
2022-09-06T21:47:32.965Z,61.58
2022-09-06T21:49:59.381Z,61.46
2022-09-06T21:52:25.847Z,61.17
2022-09-06T21:54:52.276Z,60.85
2022-09-06T21:57:18.804Z,60.75
2022-09-06T21:59:48.370Z,59.42
2022-09-06T22:02:15.475Z,59.53
2022-09-06T22:04:42.312Z,58.51
2022-09-06T22:07:08.814Z,59.09
2022-09-06T22:09:35.315Z,58.21
2022-09-06T22:12:01.903Z,58.13
2022-09-06T22:14:28.342Z,58.48
2022-09-06T22:16:54.767Z,58.57
2022-09-06T22:19:21.182Z,60.00
2022-09-06T22:21:47.600Z,60.39
2022-09-06T22:24:16.030Z,62.09
2022-09-06T22:26:42.637Z,61.87
2022-09-06T22:29:10.959Z,63.22
2022-09-06T22:31:38.147Z,65.48
2022-09-06T22:34:04.743Z,68.35
2022-09-06T22:36:31.665Z,71.35
2022-09-06T22:38:59.079Z,73.12
2022-09-06T22:41:27.624Z,79.02
2022-09-06T22:43:54.193Z,82.63
2022-09-06T22:46:20.827Z,83.17
2022-09-06T22:48:47.396Z,83.82
2022-09-06T22:51:13.961Z,84.38
2022-09-06T22:53:40.466Z,85.76
2022-09-06T22:56:07.178Z,85.63
2022-09-06T22:58:35.310Z,86.87
2022-09-06T23:01:09.318Z,84.82
2022-09-06T23:03:35.974Z,85.20
2022-09-06T23:06:03.614Z,85.61
2022-09-06T23:08:30.467Z,86.26
2022-09-06T23:10:57.033Z,85.49
2022-09-06T23:13:23.461Z,85.72
2022-09-06T23:15:50.010Z,85.63
2022-09-06T23:18:16.510Z,85.45
2022-09-06T23:20:43.051Z,85.61
2022-09-06T23:23:12.129Z,86.57
2022-09-06T23:25:39.020Z,85.77
2022-09-06T23:28:08.098Z,86.43
2022-09-06T23:30:38.058Z,87.04
2022-09-06T23:33:04.743Z,87.75
2022-09-06T23:35:31.248Z,86.33
2022-09-06T23:37:57.716Z,87.05
2022-09-06T23:40:24.140Z,86.70
2022-09-06T23:42:50.546Z,86.60
2022-09-06T23:45:17.234Z,85.91
2022-09-06T23:47:43.654Z,86.59
2022-09-06T23:50:10.255Z,86.42
2022-09-06T23:52:39.340Z,86.81
2022-09-06T23:55:06.450Z,87.11
2022-09-06T23:57:32.962Z,86.59
2022-09-06T23:59:59.399Z,86.58
